Terminal Aerodrome Forecast
Issued by NWS

Home | Current Version | Previous Version | Text Only | Print | Product List | Glossary On
Versions: 1 2 3 4 5 6 7 8 9 10 11 12 13 14 15 16 17 18 19 20
682
FTUS44 KBMX 222020 AAD
TAFMGM
TAF AMD
KMGM 222020Z 2220/2318 17010G17KT 6SM -RA SCT025 BKN050
     FM230000 16008KT P6SM VCSH SCT025 OVC050
     FM230600 17008KT P6SM OVC007=

USA.gov is the U.S. government's official web portal to all federal, state and local government web resources and services.